createdAt,value
2022-07-27T00:00:20.338Z,22.16
2022-07-27T00:01:18.028Z,22.36
2022-07-27T00:02:14.726Z,22.46
2022-07-27T00:03:11.417Z,22.59
2022-07-27T00:04:08.196Z,22.40
2022-07-27T00:05:05.430Z,22.29
2022-07-27T00:06:02.081Z,22.41
2022-07-27T00:06:58.739Z,22.34
2022-07-27T00:07:55.415Z,22.25
2022-07-27T00:08:52.035Z,21.76
2022-07-27T00:09:48.636Z,22.20
2022-07-27T00:10:45.299Z,22.28
2022-07-27T00:11:41.905Z,22.27
2022-07-27T00:12:38.604Z,22.18
2022-07-27T00:13:35.361Z,22.23
2022-07-27T00:14:32.145Z,22.25
2022-07-27T00:15:28.949Z,22.39
2022-07-27T00:16:25.705Z,22.27
2022-07-27T00:17:23.994Z,22.24
2022-07-27T00:18:20.654Z,22.20
2022-07-27T00:19:17.290Z,22.16
2022-07-27T00:20:14.169Z,22.18
2022-07-27T00:21:10.918Z,22.23
2022-07-27T00:22:07.578Z,22.05
2022-07-27T00:23:04.267Z,22.04
2022-07-27T00:24:00.875Z,22.13
2022-07-27T00:24:57.512Z,21.98
2022-07-27T00:25:54.286Z,22.00
2022-07-27T00:26:51.368Z,21.92
2022-07-27T00:27:48.132Z,22.02
2022-07-27T00:28:44.747Z,21.95
2022-07-27T00:29:41.876Z,21.85
2022-07-27T00:30:38.619Z,21.76
2022-07-27T00:31:35.453Z,21.73
2022-07-27T00:32:32.140Z,21.79
2022-07-27T00:33:29.485Z,21.89
2022-07-27T00:34:26.424Z,21.87
2022-07-27T00:35:23.412Z,21.88
2022-07-27T00:36:20.050Z,21.85
2022-07-27T00:37:16.688Z,22.10
2022-07-27T00:38:13.380Z,22.13
2022-07-27T00:39:10.254Z,22.22
2022-07-27T00:40:08.503Z,22.17
2022-07-27T00:41:05.982Z,22.05
2022-07-27T00:42:02.569Z,22.07
2022-07-27T00:42:59.225Z,22.06
2022-07-27T00:43:57.849Z,22.07
2022-07-27T00:44:55.486Z,22.68
2022-07-27T00:45:52.269Z,22.90
2022-07-27T00:46:48.971Z,22.46
2022-07-27T00:47:45.685Z,22.16
2022-07-27T00:48:42.374Z,21.81
2022-07-27T00:49:39.004Z,21.80
2022-07-27T00:50:36.205Z,21.83
2022-07-27T00:51:33.092Z,21.98
2022-07-27T00:52:30.854Z,22.18
2022-07-27T00:53:27.838Z,21.95
2022-07-27T00:54:25.174Z,21.88
2022-07-27T00:55:22.039Z,21.85
2022-07-27T00:56:18.834Z,21.93
2022-07-27T00:57:16.596Z,21.74
2022-07-27T00:58:13.561Z,21.91
2022-07-27T00:59:12.262Z,21.96
2022-07-27T01:00:09.967Z,22.12
2022-07-27T01:01:06.902Z,22.07
2022-07-27T01:02:05.054Z,21.92
2022-07-27T01:03:09.224Z,22.09
2022-07-27T01:04:06.720Z,21.86
2022-07-27T01:05:05.138Z,21.94
2022-07-27T01:06:03.607Z,21.98
2022-07-27T01:07:05.296Z,21.97
2022-07-27T01:08:02.441Z,21.98
2022-07-27T01:09:18.145Z,21.92
2022-07-27T01:10:14.884Z,22.11
2022-07-27T01:11:11.957Z,22.28
2022-07-27T01:12:13.894Z,22.42
2022-07-27T01:13:13.139Z,22.54
2022-07-27T01:14:13.341Z,22.56
2022-07-27T01:15:10.306Z,22.42
2022-07-27T01:16:07.745Z,22.43
2022-07-27T01:17:04.502Z,22.13
2022-07-27T01:18:01.099Z,22.07
2022-07-27T01:18:57.715Z,21.74
2022-07-27T01:19:54.342Z,21.71
2022-07-27T01:20:50.930Z,21.60
2022-07-27T01:21:47.552Z,21.88
2022-07-27T01:22:44.164Z,21.94
2022-07-27T01:23:40.778Z,21.78
2022-07-27T01:24:38.277Z,21.66
2022-07-27T01:25:34.996Z,21.59
2022-07-27T01:26:35.105Z,21.49
2022-07-27T01:27:31.723Z,21.60
2022-07-27T01:28:28.749Z,21.37
2022-07-27T01:29:25.368Z,21.37
2022-07-27T01:30:29.593Z,21.49
2022-07-27T01:31:27.073Z,21.43
2022-07-27T01:32:23.792Z,22.02
2022-07-27T01:33:26.056Z,21.93
2022-07-27T01:34:22.933Z,21.75
2022-07-27T01:35:19.582Z,21.71
2022-07-27T01:36:17.419Z,21.31
2022-07-27T01:37:14.052Z,21.23
2022-07-27T01:38:12.287Z,21.13
2022-07-27T01:39:09.284Z,21.09
2022-07-27T01:40:06.455Z,21.01
2022-07-27T01:41:03.240Z,20.92
2022-07-27T01:42:00.713Z,20.99
2022-07-27T01:42:57.394Z,21.10
2022-07-27T01:43:54.042Z,21.23
2022-07-27T01:44:50.823Z,21.10
2022-07-27T01:45:48.282Z,21.10
2022-07-27T01:46:45.461Z,20.96
2022-07-27T01:47:42.114Z,20.94
2022-07-27T01:48:38.790Z,21.10
2022-07-27T01:49:35.472Z,21.06
2022-07-27T01:50:32.190Z,21.08
2022-07-27T01:51:28.828Z,21.14
2022-07-27T01:52:25.451Z,21.03
2022-07-27T01:53:23.230Z,21.16
2022-07-27T01:54:19.906Z,21.20
2022-07-27T01:55:16.513Z,21.34
2022-07-27T01:56:13.849Z,21.42
2022-07-27T01:57:10.795Z,21.40
2022-07-27T01:58:09.381Z,21.40
2022-07-27T01:59:06.234Z,21.57
2022-07-27T02:00:10.427Z,21.52
2022-07-27T02:01:07.971Z,21.40
2022-07-27T02:02:04.775Z,21.12
2022-07-27T02:03:02.503Z,21.28
2022-07-27T02:03:59.143Z,21.24
2022-07-27T02:04:55.830Z,21.10
2022-07-27T02:05:52.446Z,20.93
2022-07-27T02:06:49.075Z,20.88
2022-07-27T02:07:45.787Z,20.61
2022-07-27T02:08:42.501Z,20.66
2022-07-27T02:09:39.161Z,20.79
2022-07-27T02:10:37.262Z,21.04
2022-07-27T02:11:52.210Z,21.02
2022-07-27T02:12:49.104Z,21.20
2022-07-27T02:13:47.468Z,21.28
2022-07-27T02:14:44.173Z,21.06
2022-07-27T02:15:44.596Z,20.81
2022-07-27T02:16:41.451Z,20.68
2022-07-27T02:17:40.243Z,20.78
2022-07-27T02:18:38.495Z,20.67
2022-07-27T02:19:35.523Z,20.90
2022-07-27T02:20:32.223Z,20.94
2022-07-27T02:21:28.853Z,20.77
2022-07-27T02:22:25.499Z,20.66
2022-07-27T02:23:22.512Z,20.64
2022-07-27T02:24:19.178Z,20.43
2022-07-27T02:25:17.894Z,20.52
2022-07-27T02:26:14.976Z,20.39
2022-07-27T02:27:11.632Z,20.22
2022-07-27T02:28:09.053Z,20.31
2022-07-27T02:29:05.641Z,20.43
2022-07-27T02:30:02.731Z,20.36
2022-07-27T02:30:59.874Z,20.53
2022-07-27T02:31:57.030Z,20.55
2022-07-27T02:32:53.769Z,20.68
2022-07-27T02:33:50.770Z,20.86
2022-07-27T02:34:47.865Z,20.59
2022-07-27T02:35:44.676Z,20.45
2022-07-27T02:36:41.321Z,20.28
2022-07-27T02:37:38.057Z,20.25
2022-07-27T02:38:34.713Z,20.08
2022-07-27T02:39:31.363Z,20.07
2022-07-27T02:40:28.104Z,20.23
2022-07-27T02:41:25.190Z,20.43
2022-07-27T02:42:22.092Z,20.43
2022-07-27T02:43:18.718Z,20.43
2022-07-27T02:44:17.403Z,20.47
2022-07-27T02:45:17.191Z,20.53
2022-07-27T02:46:13.877Z,20.64
2022-07-27T02:47:10.763Z,20.87
2022-07-27T02:48:08.385Z,20.95
2022-07-27T02:49:05.680Z,20.90
2022-07-27T02:50:03.124Z,20.73
2022-07-27T02:51:01.635Z,20.59
2022-07-27T02:51:58.340Z,20.63
2022-07-27T02:52:54.948Z,20.49
2022-07-27T02:53:51.536Z,20.49
2022-07-27T02:54:48.236Z,20.60
2022-07-27T02:55:44.942Z,20.71
2022-07-27T02:56:41.531Z,20.73
2022-07-27T02:57:41.113Z,20.70
2022-07-27T02:58:38.049Z,20.68
2022-07-27T02:59:34.724Z,20.53
2022-07-27T03:00:31.515Z,20.60
2022-07-27T03:01:28.261Z,20.54
2022-07-27T03:02:25.157Z,20.58
2022-07-27T03:03:21.897Z,20.33
2022-07-27T03:04:19.381Z,20.38
2022-07-27T03:05:16.418Z,20.56
2022-07-27T03:06:13.979Z,20.58
2022-07-27T03:07:10.677Z,20.31
2022-07-27T03:08:07.311Z,20.19
2022-07-27T03:09:04.811Z,20.29
2022-07-27T03:10:01.488Z,20.63
2022-07-27T03:10:58.145Z,20.69
2022-07-27T03:11:54.799Z,20.45
2022-07-27T03:12:51.435Z,20.23
2022-07-27T03:13:48.177Z,20.21
2022-07-27T03:14:44.826Z,20.43
2022-07-27T03:15:41.574Z,20.55
2022-07-27T03:16:38.316Z,20.24
2022-07-27T03:17:34.949Z,20.17
2022-07-27T03:18:31.604Z,20.14
2022-07-27T03:19:30.451Z,20.01
2022-07-27T03:20:27.317Z,20.29
2022-07-27T03:21:24.634Z,20.17
2022-07-27T03:22:21.291Z,19.95
2022-07-27T03:23:18.433Z,19.72
2022-07-27T03:24:15.052Z,19.82
2022-07-27T03:25:11.731Z,19.91
2022-07-27T03:26:08.497Z,20.20
2022-07-27T03:27:05.110Z,20.13
2022-07-27T03:28:04.202Z,19.72
2022-07-27T03:29:01.213Z,19.91
2022-07-27T03:29:57.805Z,20.06
2022-07-27T03:30:54.550Z,19.93
2022-07-27T03:31:51.169Z,19.87
2022-07-27T03:32:48.457Z,19.87
2022-07-27T03:33:45.434Z,19.75
2022-07-27T03:34:42.190Z,19.68
2022-07-27T03:35:38.819Z,19.57
2022-07-27T03:36:36.325Z,19.63
2022-07-27T03:37:33.897Z,19.69
2022-07-27T03:38:30.589Z,19.69
2022-07-27T03:39:27.233Z,19.70
2022-07-27T03:40:23.887Z,19.79
2022-07-27T03:41:20.503Z,19.70
2022-07-27T03:42:17.211Z,19.86
2022-07-27T03:43:13.867Z,20.05
2022-07-27T03:44:10.773Z,20.19
2022-07-27T03:45:08.693Z,20.38
2022-07-27T03:46:05.717Z,20.30
2022-07-27T03:47:02.347Z,20.49
2022-07-27T03:47:59.047Z,20.34
2022-07-27T03:48:57.192Z,20.29
2022-07-27T03:49:53.943Z,20.45
2022-07-27T03:50:50.733Z,20.60
2022-07-27T03:51:47.390Z,20.80
2022-07-27T03:52:45.479Z,20.83
2022-07-27T03:53:42.459Z,20.77
2022-07-27T03:54:39.151Z,20.28
2022-07-27T03:55:35.753Z,20.33
2022-07-27T03:56:33.257Z,20.16
2022-07-27T03:57:29.930Z,20.09
2022-07-27T03:58:26.680Z,20.05
2022-07-27T03:59:23.429Z,20.09
2022-07-27T04:00:20.821Z,20.16
2022-07-27T04:01:17.513Z,20.21
2022-07-27T04:02:14.348Z,20.30
2022-07-27T04:03:11.178Z,20.32
2022-07-27T04:04:07.840Z,20.23
2022-07-27T04:05:04.933Z,19.99
2022-07-27T04:06:01.583Z,20.24
2022-07-27T04:06:58.749Z,20.25
2022-07-27T04:07:55.365Z,20.58
2022-07-27T04:08:54.993Z,20.21
2022-07-27T04:09:56.173Z,20.55
2022-07-27T04:10:52.808Z,20.60
2022-07-27T04:11:51.049Z,20.65
2022-07-27T04:12:48.279Z,21.03
2022-07-27T04:13:46.702Z,21.30
2022-07-27T04:14:44.093Z,21.20
2022-07-27T04:15:40.743Z,21.14
2022-07-27T04:16:37.455Z,21.04
2022-07-27T04:17:55.025Z,20.89
2022-07-27T04:18:50.940Z,20.69
2022-07-27T04:19:47.675Z,20.70
2022-07-27T04:20:44.341Z,20.74
2022-07-27T04:21:41.065Z,20.78
2022-07-27T04:22:37.838Z,20.91
2022-07-27T04:23:38.149Z,20.92
2022-07-27T04:24:35.262Z,20.79
2022-07-27T04:25:31.966Z,21.31
2022-07-27T04:26:28.840Z,21.39
2022-07-27T04:27:25.473Z,21.71
2022-07-27T04:28:22.147Z,21.88
2022-07-27T04:29:20.756Z,21.96
2022-07-27T04:30:17.899Z,22.08
2022-07-27T04:31:14.712Z,22.06
2022-07-27T04:32:11.433Z,22.22
2022-07-27T04:33:08.064Z,22.28
2022-07-27T04:34:04.731Z,22.39
2022-07-27T04:35:01.499Z,22.41
2022-07-27T04:35:58.108Z,22.53
2022-07-27T04:36:54.803Z,22.59
2022-07-27T04:37:58.821Z,22.66
2022-07-27T04:38:56.344Z,22.64
2022-07-27T04:39:57.679Z,22.85
2022-07-27T04:40:58.223Z,23.01
2022-07-27T04:41:55.164Z,23.11
2022-07-27T04:42:51.800Z,23.18
2022-07-27T04:43:48.448Z,23.18
2022-07-27T04:44:45.080Z,23.08
2022-07-27T04:45:41.777Z,23.29
2022-07-27T04:46:38.607Z,23.28
2022-07-27T04:47:35.311Z,23.33
2022-07-27T04:48:33.579Z,23.48
2022-07-27T04:49:30.270Z,23.27
2022-07-27T04:50:26.990Z,23.60
2022-07-27T04:51:23.706Z,23.50
2022-07-27T04:52:26.599Z,23.54
2022-07-27T04:53:24.023Z,23.65
2022-07-27T04:54:20.672Z,23.60
2022-07-27T04:55:17.310Z,23.76
2022-07-27T04:56:14.005Z,23.66
2022-07-27T04:57:10.818Z,23.52
2022-07-27T04:58:07.576Z,23.66
2022-07-27T04:59:04.361Z,23.65
2022-07-27T05:00:01.090Z,23.23
2022-07-27T05:00:57.867Z,23.31
2022-07-27T05:01:55.526Z,23.25
2022-07-27T05:02:52.451Z,23.24
2022-07-27T05:03:49.087Z,23.14
2022-07-27T05:04:46.067Z,23.22
2022-07-27T05:05:49.716Z,23.26
2022-07-27T05:06:46.855Z,23.34
2022-07-27T05:07:43.467Z,23.30
2022-07-27T05:08:40.105Z,23.20
2022-07-27T05:09:36.713Z,23.29
2022-07-27T05:10:33.497Z,23.51
2022-07-27T05:11:30.187Z,23.70
2022-07-27T05:12:26.942Z,23.65
2022-07-27T05:13:23.568Z,23.58
2022-07-27T05:14:21.280Z,23.49
2022-07-27T05:15:18.785Z,23.56
2022-07-27T05:16:15.546Z,23.81
2022-07-27T05:17:12.193Z,23.92
2022-07-27T05:18:08.894Z,23.99
2022-07-27T05:19:05.539Z,24.25
2022-07-27T05:20:02.514Z,24.48
2022-07-27T05:20:59.169Z,24.47
2022-07-27T05:21:55.813Z,24.81
2022-07-27T05:22:52.699Z,24.81
2022-07-27T05:23:49.307Z,25.09
2022-07-27T05:24:45.938Z,25.17
2022-07-27T05:25:42.559Z,25.10
2022-07-27T05:26:39.272Z,25.06
2022-07-27T05:27:37.520Z,25.05
2022-07-27T05:28:51.539Z,25.22
2022-07-27T05:29:48.145Z,25.31
2022-07-27T05:30:45.011Z,25.45
2022-07-27T05:31:41.676Z,25.49
2022-07-27T05:32:38.319Z,25.63
2022-07-27T05:33:35.331Z,25.61
2022-07-27T05:34:32.096Z,25.52
2022-07-27T05:35:28.851Z,25.45
2022-07-27T05:36:26.010Z,25.00
2022-07-27T05:37:22.639Z,25.04
2022-07-27T05:38:19.242Z,25.13
2022-07-27T05:39:16.137Z,24.84
2022-07-27T05:40:13.748Z,24.94
2022-07-27T05:41:10.411Z,24.86
2022-07-27T05:42:07.127Z,24.92
2022-07-27T05:43:04.048Z,24.83
2022-07-27T05:44:00.745Z,24.84
2022-07-27T05:44:57.381Z,24.77
2022-07-27T05:45:54.623Z,24.83
2022-07-27T05:46:51.319Z,24.72
2022-07-27T05:47:47.947Z,24.47
2022-07-27T05:48:44.728Z,24.51
2022-07-27T05:49:41.556Z,24.76
2022-07-27T05:50:38.256Z,24.39
2022-07-27T05:51:35.191Z,24.40
2022-07-27T05:52:31.776Z,24.73
2022-07-27T05:53:28.577Z,24.98
2022-07-27T05:54:25.334Z,25.10
2022-07-27T05:55:21.956Z,25.25
2022-07-27T05:56:18.588Z,25.20
2022-07-27T05:57:15.665Z,25.19
2022-07-27T05:58:12.397Z,25.05
2022-07-27T05:59:09.141Z,25.56
2022-07-27T06:00:07.577Z,25.82
2022-07-27T06:01:04.269Z,26.06
2022-07-27T06:02:00.921Z,26.14
2022-07-27T06:02:57.544Z,26.14
2022-07-27T06:03:54.229Z,26.22
2022-07-27T06:04:50.893Z,25.72
2022-07-27T06:05:47.634Z,25.25
2022-07-27T06:07:03.121Z,25.30
2022-07-27T06:07:59.826Z,25.50
2022-07-27T06:08:56.619Z,25.55
2022-07-27T06:09:53.244Z,26.04
2022-07-27T06:10:49.875Z,26.07
2022-07-27T06:11:46.477Z,26.28
2022-07-27T06:12:44.742Z,26.39
2022-07-27T06:13:42.191Z,26.35
2022-07-27T06:14:39.425Z,25.76
2022-07-27T06:15:36.949Z,25.89
2022-07-27T06:16:34.223Z,25.74
2022-07-27T06:17:30.963Z,26.12
2022-07-27T06:18:27.605Z,25.92
2022-07-27T06:19:24.489Z,25.85
2022-07-27T06:20:32.939Z,26.06
2022-07-27T06:21:29.610Z,26.32
2022-07-27T06:22:26.261Z,26.59
2022-07-27T06:23:22.882Z,26.57
2022-07-27T06:24:19.575Z,25.93
2022-07-27T06:25:17.158Z,25.88
2022-07-27T06:26:14.131Z,26.16
2022-07-27T06:27:10.763Z,26.37
2022-07-27T06:28:07.416Z,26.68
2022-07-27T06:29:09.972Z,26.69
2022-07-27T06:30:08.750Z,26.60
2022-07-27T06:31:06.787Z,25.87
2022-07-27T06:32:06.752Z,26.23
2022-07-27T06:33:06.057Z,26.00
2022-07-27T06:34:08.171Z,25.81
2022-07-27T06:35:09.423Z,25.68
2022-07-27T06:36:08.361Z,26.09
2022-07-27T06:37:05.045Z,25.75
2022-07-27T06:38:02.860Z,25.93
2022-07-27T06:38:59.499Z,26.01
2022-07-27T06:39:56.893Z,25.71
2022-07-27T06:40:54.430Z,25.59
2022-07-27T06:41:54.878Z,25.83
2022-07-27T06:42:54.664Z,25.51
2022-07-27T06:43:51.341Z,25.63
2022-07-27T06:44:48.027Z,25.63
2022-07-27T06:45:44.697Z,25.83
2022-07-27T06:46:41.401Z,26.16
2022-07-27T06:47:48.907Z,25.98
2022-07-27T06:48:46.671Z,26.00
2022-07-27T06:49:43.364Z,26.02
2022-07-27T06:50:40.187Z,25.93
2022-07-27T06:51:38.023Z,25.63
2022-07-27T06:52:35.320Z,26.11
2022-07-27T06:53:36.167Z,26.46
2022-07-27T06:54:33.739Z,26.49
2022-07-27T06:55:30.370Z,26.48
2022-07-27T06:56:27.052Z,26.18
2022-07-27T06:57:23.671Z,26.37
2022-07-27T06:58:20.320Z,26.15
2022-07-27T06:59:16.998Z,26.11
2022-07-27T07:00:14.853Z,26.11
2022-07-27T07:01:11.544Z,26.51
2022-07-27T07:02:08.694Z,26.83
2022-07-27T07:03:06.383Z,27.13
2022-07-27T07:04:03.172Z,27.41
2022-07-27T07:04:59.950Z,27.64
2022-07-27T07:05:57.060Z,27.28
2022-07-27T07:06:53.852Z,26.57
2022-07-27T07:07:51.090Z,26.54
2022-07-27T07:08:47.869Z,26.59
2022-07-27T07:09:44.507Z,26.89
2022-07-27T07:10:43.624Z,27.16
2022-07-27T07:11:40.260Z,27.08
2022-07-27T07:12:36.890Z,27.52
2022-07-27T07:13:37.770Z,27.28
2022-07-27T07:14:36.811Z,26.81
2022-07-27T07:15:34.950Z,26.72
2022-07-27T07:16:31.685Z,26.58
2022-07-27T07:17:28.355Z,26.69
2022-07-27T07:18:24.979Z,26.94
2022-07-27T07:19:21.692Z,27.15
2022-07-27T07:20:19.129Z,27.06
2022-07-27T07:21:16.713Z,27.25
2022-07-27T07:22:13.533Z,27.23
2022-07-27T07:23:10.717Z,27.21
2022-07-27T07:24:07.462Z,27.22
2022-07-27T07:25:04.313Z,27.38
2022-07-27T07:26:00.909Z,27.80
2022-07-27T07:26:57.567Z,28.02
2022-07-27T07:27:55.176Z,28.27
2022-07-27T07:28:51.862Z,28.13
2022-07-27T07:29:48.496Z,27.71
2022-07-27T07:30:45.115Z,27.74
2022-07-27T07:31:41.940Z,27.55
2022-07-27T07:32:38.595Z,27.80
2022-07-27T07:33:35.267Z,28.13
2022-07-27T07:34:32.391Z,28.23
2022-07-27T07:35:29.941Z,27.93
2022-07-27T07:36:27.012Z,27.62
2022-07-27T07:37:23.848Z,27.91
2022-07-27T07:38:30.370Z,27.64
2022-07-27T07:39:31.280Z,27.79
2022-07-27T07:40:45.117Z,27.63
2022-07-27T07:41:42.103Z,28.28
2022-07-27T07:43:11.455Z,28.56
2022-07-27T07:44:09.152Z,28.82
2022-07-27T07:45:06.383Z,28.32
2022-07-27T07:46:03.298Z,28.46
2022-07-27T07:47:00.961Z,28.87
2022-07-27T07:47:58.215Z,28.96
2022-07-27T07:48:54.866Z,28.77
2022-07-27T07:49:51.544Z,28.98
2022-07-27T07:50:52.103Z,28.87
2022-07-27T07:51:49.785Z,28.85
2022-07-27T07:52:48.573Z,28.48
2022-07-27T07:53:45.233Z,28.46
2022-07-27T07:54:41.870Z,28.69
2022-07-27T07:55:38.587Z,28.54
2022-07-27T07:56:35.289Z,28.65
2022-07-27T07:57:31.946Z,28.87
2022-07-27T07:58:28.645Z,29.27
2022-07-27T07:59:25.488Z,28.51
2022-07-27T08:00:23.099Z,28.37
2022-07-27T08:01:19.743Z,28.43
2022-07-27T08:02:16.476Z,28.70
2022-07-27T08:03:13.431Z,29.18
2022-07-27T08:04:10.172Z,29.47
2022-07-27T08:05:07.576Z,29.16
2022-07-27T08:06:04.541Z,28.90
2022-07-27T08:07:01.355Z,28.69
2022-07-27T08:07:58.074Z,29.29
2022-07-27T08:08:54.869Z,29.53
2022-07-27T08:09:51.479Z,29.61
2022-07-27T08:10:48.144Z,29.56
2022-07-27T08:11:44.977Z,29.49
2022-07-27T08:12:44.952Z,29.53
2022-07-27T08:13:41.679Z,30.10
2022-07-27T08:14:38.263Z,30.52
2022-07-27T08:15:36.225Z,30.29
2022-07-27T08:16:33.306Z,30.39
2022-07-27T08:17:30.142Z,30.54
2022-07-27T08:18:26.794Z,30.65
2022-07-27T08:19:23.516Z,30.73
2022-07-27T08:20:21.344Z,30.96
2022-07-27T08:21:18.084Z,31.08
2022-07-27T08:22:14.788Z,30.78
2022-07-27T08:23:13.212Z,30.41
2022-07-27T08:24:09.824Z,30.52
2022-07-27T08:25:07.675Z,30.49
2022-07-27T08:26:07.770Z,30.36
2022-07-27T08:27:05.075Z,30.37
2022-07-27T08:28:02.568Z,29.82
2022-07-27T08:28:59.596Z,29.92
2022-07-27T08:30:11.697Z,30.39
2022-07-27T08:31:14.116Z,30.48
2022-07-27T08:32:11.524Z,30.50
2022-07-27T08:33:08.326Z,30.20
2022-07-27T08:34:04.931Z,30.33
2022-07-27T08:35:02.117Z,30.80
2022-07-27T08:35:59.642Z,30.96
2022-07-27T08:36:56.587Z,30.43
2022-07-27T08:37:53.679Z,30.66
2022-07-27T08:38:50.400Z,31.10
2022-07-27T08:40:37.985Z,30.79
2022-07-27T08:41:04.228Z,30.74
2022-07-27T08:42:06.578Z,30.27
2022-07-27T08:43:05.125Z,30.26
2022-07-27T08:44:03.328Z,30.28
2022-07-27T08:45:00.557Z,30.45
2022-07-27T08:45:59.373Z,30.12
2022-07-27T08:46:57.169Z,30.90
2022-07-27T08:47:53.903Z,30.80
2022-07-27T08:48:51.026Z,30.73
2022-07-27T08:49:49.688Z,30.37
2022-07-27T08:50:48.799Z,30.70
2022-07-27T08:51:47.327Z,31.18
2022-07-27T08:52:44.823Z,30.88
2022-07-27T08:53:53.545Z,31.14
2022-07-27T08:54:50.834Z,31.77
2022-07-27T08:55:48.210Z,31.45
2022-07-27T08:56:44.896Z,31.51
2022-07-27T08:57:41.586Z,31.10
2022-07-27T08:58:38.211Z,31.09
2022-07-27T08:59:34.927Z,31.34
2022-07-27T09:00:32.827Z,31.77
2022-07-27T09:01:32.989Z,31.72
2022-07-27T09:02:29.719Z,31.70
2022-07-27T09:03:26.595Z,31.58
2022-07-27T09:04:23.417Z,31.62
2022-07-27T09:05:20.211Z,31.94
2022-07-27T09:06:53.446Z,32.18
2022-07-27T09:07:51.164Z,32.08
2022-07-27T09:08:59.228Z,31.72
2022-07-27T09:09:55.908Z,31.94
2022-07-27T09:10:58.060Z,31.70
2022-07-27T09:12:10.808Z,31.82
2022-07-27T09:13:26.836Z,31.51
2022-07-27T09:14:31.100Z,31.83
2022-07-27T09:15:34.217Z,31.36
2022-07-27T09:17:02.922Z,31.46
2022-07-27T09:17:49.649Z,31.38
2022-07-27T09:18:47.488Z,31.56
2022-07-27T09:20:18.593Z,32.42
2022-07-27T09:21:21.798Z,31.87
2022-07-27T09:22:39.128Z,31.98
2022-07-27T09:23:36.479Z,32.11
2022-07-27T09:24:48.466Z,32.71
2022-07-27T09:26:03.240Z,32.46
2022-07-27T09:27:03.600Z,32.83
2022-07-27T09:28:00.880Z,32.83
2022-07-27T09:29:03.904Z,32.80
2022-07-27T09:30:11.602Z,32.96
2022-07-27T09:31:16.289Z,33.33
2022-07-27T09:32:16.247Z,33.07
2022-07-27T09:33:15.321Z,32.17
2022-07-27T09:34:14.127Z,32.08
2022-07-27T09:35:34.465Z,32.15
2022-07-27T09:36:31.531Z,32.67
2022-07-27T09:37:28.762Z,32.87
2022-07-27T09:38:25.514Z,32.83
2022-07-27T09:39:25.025Z,32.33
2022-07-27T09:40:24.266Z,32.49
2022-07-27T09:41:23.482Z,32.73
2022-07-27T09:43:05.691Z,32.57
2022-07-27T09:45:34.361Z,32.57
2022-07-27T09:46:34.423Z,32.83
2022-07-27T09:47:31.555Z,32.88
2022-07-27T09:48:28.175Z,33.30
2022-07-27T09:49:33.798Z,33.02
2022-07-27T09:50:35.335Z,33.32
2022-07-27T09:51:58.893Z,33.06
2022-07-27T09:52:50.203Z,33.03
2022-07-27T09:53:47.218Z,32.40
2022-07-27T09:54:46.705Z,32.94
2022-07-27T09:55:44.767Z,33.02
2022-07-27T09:56:41.956Z,32.72
2022-07-27T09:57:58.518Z,33.16
2022-07-27T09:59:03.096Z,32.91
2022-07-27T10:00:13.879Z,33.08
2022-07-27T10:01:17.464Z,33.88
2022-07-27T10:02:15.100Z,34.20
2022-07-27T10:03:12.074Z,34.04
2022-07-27T10:04:09.103Z,34.01
2022-07-27T10:05:07.599Z,33.19
2022-07-27T10:06:04.639Z,32.85
2022-07-27T10:07:05.267Z,33.53
2022-07-27T10:08:04.226Z,33.61
2022-07-27T10:09:01.957Z,33.58
2022-07-27T10:09:58.932Z,33.73
2022-07-27T10:10:57.506Z,33.83
2022-07-27T10:11:54.250Z,33.67
2022-07-27T10:12:55.150Z,33.68
2022-07-27T10:13:54.111Z,34.08
2022-07-27T10:14:50.741Z,33.89
2022-07-27T10:15:47.550Z,33.72
2022-07-27T10:16:49.109Z,33.76
2022-07-27T10:17:46.679Z,33.78
2022-07-27T10:19:14.019Z,33.17
2022-07-27T10:20:13.906Z,33.73
2022-07-27T10:21:11.651Z,34.26
2022-07-27T10:22:08.336Z,33.74
2022-07-27T10:23:05.035Z,34.07
2022-07-27T10:24:10.362Z,34.13
2022-07-27T10:25:08.707Z,34.11
2022-07-27T10:26:26.424Z,34.09
2022-07-27T10:27:28.430Z,34.04
2022-07-27T10:28:26.749Z,34.34
2022-07-27T10:29:24.724Z,34.91
2022-07-27T10:30:24.015Z,35.26
2022-07-27T10:31:28.787Z,35.65
2022-07-27T10:32:31.123Z,35.52
2022-07-27T10:33:48.837Z,35.34
2022-07-27T10:34:45.573Z,34.13
2022-07-27T10:35:42.770Z,34.81
2022-07-27T10:36:51.735Z,34.77
2022-07-27T10:38:07.327Z,35.15
2022-07-27T10:39:07.949Z,35.47
2022-07-27T10:40:26.228Z,35.65
2022-07-27T10:41:24.230Z,35.49
2022-07-27T10:42:24.624Z,34.82
2022-07-27T10:43:22.387Z,35.01
2022-07-27T10:44:19.056Z,35.47
2022-07-27T10:45:19.411Z,35.73
2022-07-27T10:46:22.206Z,35.95
2022-07-27T10:47:33.391Z,35.54
2022-07-27T10:48:47.912Z,35.16
2022-07-27T10:49:45.579Z,35.50
2022-07-27T10:50:48.307Z,35.52
2022-07-27T10:51:45.217Z,35.55
2022-07-27T10:52:42.360Z,35.82
2022-07-27T10:54:10.426Z,35.39
2022-07-27T10:55:00.144Z,35.09
2022-07-27T10:55:57.127Z,34.76
2022-07-27T10:56:56.241Z,34.75
2022-07-27T10:57:54.336Z,35.16
2022-07-27T10:58:51.890Z,35.31
2022-07-27T11:00:20.204Z,35.57
2022-07-27T11:01:09.528Z,35.44
2022-07-27T11:02:13.942Z,34.80
2022-07-27T11:03:30.864Z,34.77
2022-07-27T11:04:27.590Z,34.70
2022-07-27T11:05:58.389Z,35.13
2022-07-27T11:07:15.074Z,35.13
2022-07-27T11:10:44.173Z,35.52
2022-07-27T11:11:41.064Z,35.11
2022-07-27T11:12:39.299Z,34.65
2022-07-27T11:13:38.916Z,34.67
2022-07-27T11:14:50.731Z,34.88
2022-07-27T11:16:22.983Z,34.76
2022-07-27T11:17:54.155Z,35.56
2022-07-27T11:18:44.087Z,35.11
2022-07-27T11:19:41.315Z,34.60
2022-07-27T11:20:37.927Z,35.61
2022-07-27T11:21:39.066Z,35.63
2022-07-27T11:23:59.157Z,35.52
2022-07-27T11:24:55.945Z,34.96
2022-07-27T11:26:00.735Z,35.51
2022-07-27T11:26:57.402Z,35.41
2022-07-27T11:27:54.036Z,35.13
2022-07-27T11:28:52.165Z,35.73
2022-07-27T11:29:48.830Z,36.05
2022-07-27T11:30:45.625Z,35.96
2022-07-27T11:31:55.357Z,36.10
2022-07-27T11:32:53.903Z,35.94
2022-07-27T11:34:08.631Z,36.08
2022-07-27T11:35:24.302Z,36.41
2022-07-27T11:36:22.187Z,36.46
2022-07-27T11:37:23.135Z,36.66
2022-07-27T11:38:20.067Z,36.63
2022-07-27T11:40:59.895Z,35.55
2022-07-27T11:42:11.783Z,36.57
2022-07-27T11:43:10.206Z,36.91
2022-07-27T11:44:17.283Z,36.96
2022-07-27T11:45:27.758Z,37.11
2022-07-27T11:46:27.869Z,37.10
2022-07-27T11:47:26.408Z,36.92
2022-07-27T11:48:23.096Z,36.49
2022-07-27T11:49:31.422Z,35.51
2022-07-27T11:50:28.309Z,35.68
2022-07-27T11:51:25.399Z,36.59
2022-07-27T11:52:23.766Z,36.63
2022-07-27T11:53:20.968Z,36.33
2022-07-27T11:54:25.265Z,36.61
2022-07-27T11:55:22.422Z,36.84
2022-07-27T11:56:26.854Z,36.78
2022-07-27T11:57:33.882Z,37.08
2022-07-27T11:58:30.856Z,37.21
2022-07-27T11:59:29.290Z,37.84
2022-07-27T12:00:40.479Z,37.73
2022-07-27T12:01:43.585Z,37.51
2022-07-27T12:02:51.395Z,38.18
2022-07-27T12:03:48.136Z,38.14
2022-07-27T12:04:49.538Z,37.03
2022-07-27T12:05:58.384Z,36.79
2022-07-27T12:07:04.870Z,37.28
2022-07-27T12:08:01.624Z,36.66
2022-07-27T12:08:58.466Z,36.32
2022-07-27T12:09:58.164Z,37.44
2022-07-27T12:11:01.198Z,37.43
2022-07-27T12:11:59.671Z,37.81
2022-07-27T12:12:56.318Z,37.52
2022-07-27T12:13:58.424Z,37.78
2022-07-27T12:15:11.662Z,38.40
2022-07-27T12:16:19.343Z,38.04
2022-07-27T12:17:20.657Z,37.63
2022-07-27T12:18:17.661Z,37.27
2022-07-27T12:19:23.110Z,37.85
2022-07-27T12:20:24.963Z,37.61
2022-07-27T12:21:22.149Z,36.51
2022-07-27T12:22:27.955Z,36.30
2022-07-27T12:23:29.709Z,37.05
2022-07-27T12:24:33.930Z,38.03
2022-07-27T12:25:32.770Z,37.88
2022-07-27T12:26:30.126Z,35.25
2022-07-27T12:27:27.651Z,35.96
2022-07-27T12:28:25.658Z,36.07
2022-07-27T12:29:22.851Z,35.68
2022-07-27T12:30:32.456Z,35.52
2022-07-27T12:31:29.218Z,35.66
2022-07-27T12:32:27.526Z,34.89
2022-07-27T12:33:37.762Z,34.10
2022-07-27T12:34:36.070Z,34.63
2022-07-27T12:35:45.742Z,34.32
2022-07-27T12:36:43.048Z,33.38
2022-07-27T12:37:42.707Z,33.45
2022-07-27T12:38:42.110Z,33.09
2022-07-27T12:39:41.540Z,32.66
2022-07-27T12:40:48.384Z,33.00
2022-07-27T12:41:45.086Z,33.43
2022-07-27T12:42:42.142Z,34.23
2022-07-27T12:43:38.802Z,34.42
2022-07-27T12:44:37.591Z,34.79
2022-07-27T12:45:38.830Z,35.01
2022-07-27T12:47:02.493Z,34.86
2022-07-27T12:48:10.080Z,35.00